createdAt,value
2019-03-10T00:04:26.472Z,100769.08
2019-03-10T00:07:10.532Z,100777.37
2019-03-10T00:09:43.574Z,100772.67
2019-03-10T00:12:28.536Z,100776.05
2019-03-10T00:15:12.907Z,100745.11
2019-03-10T00:17:57.537Z,100732.01
2019-03-10T00:20:41.794Z,100757.77
2019-03-10T00:26:13.359Z,100736.03
2019-03-10T00:28:57.334Z,100740.09
2019-03-10T00:31:41.294Z,100724.55
2019-03-10T00:34:24.873Z,100738.95
2019-03-10T00:37:10.625Z,100760.83
2019-03-10T00:40:14.811Z,100738.63
2019-03-10T00:43:05.157Z,100746.57
2019-03-10T00:46:11.017Z,100743.33
2019-03-10T00:49:01.202Z,100734.90
2019-03-10T00:52:05.343Z,100742.52
2019-03-10T00:54:50.600Z,100756.92
2019-03-10T00:57:34.703Z,100719.86
2019-03-10T01:00:19.563Z,100721.31
2019-03-10T01:03:03.428Z,100753.23
2019-03-10T01:05:48.118Z,100750.31
2019-03-10T01:08:32.947Z,100751.28
2019-03-10T01:11:16.800Z,100729.71
2019-03-10T01:14:01.273Z,100728.74
2019-03-10T01:16:45.009Z,100756.61
2019-03-10T01:19:28.988Z,100753.52
2019-03-10T01:22:12.694Z,100721.78
2019-03-10T01:24:56.271Z,100715.16
2019-03-10T01:27:40.547Z,100741.86
2019-03-10T01:30:26.505Z,100739.44
2019-03-10T01:36:15.984Z,100736.69
2019-03-10T01:38:59.544Z,100711.77
2019-03-10T01:41:43.620Z,100708.02
2019-03-10T01:44:27.943Z,100697.50
2019-03-10T01:47:12.431Z,100703.01
2019-03-10T01:49:55.979Z,100699.61
2019-03-10T01:52:28.186Z,100719.52
2019-03-10T01:55:12.573Z,100724.22
2019-03-10T01:57:45.943Z,100709.47
2019-03-10T02:00:29.804Z,100685.83
2019-03-10T02:03:13.782Z,100681.94
2019-03-10T02:05:57.321Z,100706.89
2019-03-10T02:08:41.078Z,100710.94
2019-03-10T02:11:25.380Z,100713.54
2019-03-10T02:14:08.926Z,100710.47
2019-03-10T02:16:53.326Z,100712.40
2019-03-10T02:22:12.581Z,100705.91
2019-03-10T02:27:57.241Z,100678.71
2019-03-10T02:30:41.025Z,100695.73
2019-03-10T02:36:16.175Z,100660.40
2019-03-10T02:38:59.959Z,100654.57
2019-03-10T02:41:43.871Z,100656.05
2019-03-10T02:44:28.173Z,100681.63
2019-03-10T02:47:11.828Z,100675.64
2019-03-10T02:49:56.152Z,100680.66
2019-03-10T02:52:40.592Z,100661.88
2019-03-10T02:55:24.414Z,100638.55
2019-03-10T02:58:08.480Z,100641.66
2019-03-10T03:00:52.067Z,100632.74
2019-03-10T03:03:24.831Z,100664.94
2019-03-10T03:06:08.383Z,100635.65
2019-03-10T03:08:52.909Z,100665.75
2019-03-10T03:11:37.018Z,100645.20
2019-03-10T03:14:21.485Z,100644.56
2019-03-10T03:17:05.306Z,100643.59
2019-03-10T03:19:49.218Z,100634.84
2019-03-10T03:22:32.601Z,100663.50
2019-03-10T03:25:16.225Z,100636.16
2019-03-10T03:27:59.812Z,100623.53
2019-03-10T03:30:44.312Z,100649.41
2019-03-10T03:33:28.441Z,100611.69
2019-03-10T03:39:21.755Z,100636.13
2019-03-10T03:42:07.348Z,100613.16
2019-03-10T03:44:53.743Z,100606.70
2019-03-10T03:47:37.569Z,100598.44
2019-03-10T03:50:22.470Z,100628.20
2019-03-10T03:53:06.811Z,100611.22
2019-03-10T03:55:53.031Z,100605.23
2019-03-10T03:58:37.064Z,100600.37
2019-03-10T04:04:31.486Z,100616.38
2019-03-10T04:07:15.325Z,100587.09
2019-03-10T04:09:59.894Z,100589.70
2019-03-10T04:12:44.456Z,100611.03
2019-03-10T04:15:29.052Z,100604.55
2019-03-10T04:18:13.743Z,100605.70
2019-03-10T04:20:57.699Z,100571.70
2019-03-10T04:23:41.993Z,100567.02
2019-03-10T04:26:28.655Z,100551.65
2019-03-10T04:29:12.661Z,100556.19
2019-03-10T04:31:44.897Z,100577.85
2019-03-10T04:34:28.962Z,100545.98
2019-03-10T04:37:13.258Z,100575.58
2019-03-10T04:39:57.221Z,100544.53
2019-03-10T04:42:41.776Z,100546.78
2019-03-10T04:45:25.619Z,100542.75
2019-03-10T04:48:09.672Z,100535.43
2019-03-10T04:53:24.865Z,100549.64
2019-03-10T04:56:28.247Z,100519.41
2019-03-10T04:59:12.335Z,100547.84
2019-03-10T05:01:56.426Z,100525.34
2019-03-10T05:04:41.491Z,100527.17
2019-03-10T05:07:26.066Z,100562.60
2019-03-10T05:10:10.196Z,100554.83
2019-03-10T05:12:54.672Z,100555.95
2019-03-10T05:15:38.704Z,100533.98
2019-03-10T05:18:23.590Z,100528.48
2019-03-10T05:21:07.451Z,100545.27
2019-03-10T05:23:51.457Z,100518.28
2019-03-10T05:26:23.654Z,100536.05
2019-03-10T05:29:07.573Z,100537.20
2019-03-10T05:31:52.050Z,100506.77
2019-03-10T05:34:24.500Z,100532.27
2019-03-10T05:36:57.076Z,100528.58
2019-03-10T05:39:41.858Z,100498.20
2019-03-10T05:42:26.690Z,100512.08
2019-03-10T05:48:13.637Z,100494.09
2019-03-10T05:50:58.068Z,100470.34
2019-03-10T05:53:41.976Z,100453.17
2019-03-10T05:56:26.588Z,100443.96
2019-03-10T05:59:10.864Z,100471.75
2019-03-10T06:01:55.442Z,100471.45
2019-03-10T06:04:39.983Z,100473.05
2019-03-10T06:07:24.993Z,100441.55
2019-03-10T06:10:10.442Z,100458.45
2019-03-10T06:12:54.944Z,100460.24
2019-03-10T06:15:39.390Z,100456.97
2019-03-10T06:18:26.368Z,100459.94
2019-03-10T06:21:10.359Z,100425.00
2019-03-10T06:23:54.674Z,100443.89
2019-03-10T06:29:26.197Z,100412.05
2019-03-10T06:32:10.628Z,100424.09
2019-03-10T06:34:54.439Z,100422.21
2019-03-10T06:43:10.683Z,100379.80
2019-03-10T06:45:58.146Z,100390.68
2019-03-10T06:48:42.118Z,100386.79
2019-03-10T06:51:26.084Z,100408.56
2019-03-10T06:57:23.966Z,100373.52
2019-03-10T07:00:08.665Z,100369.41
2019-03-10T07:05:42.042Z,100384.23
2019-03-10T07:08:26.045Z,100377.77
2019-03-10T07:11:10.118Z,100372.28
2019-03-10T07:16:30.467Z,100356.55
2019-03-10T07:19:18.355Z,100349.94
2019-03-10T07:22:03.127Z,100315.66
2019-03-10T07:24:48.606Z,100316.46
2019-03-10T07:31:01.783Z,100306.17
2019-03-10T07:34:07.408Z,100327.41
2019-03-10T07:40:33.055Z,100280.86
2019-03-10T07:43:24.734Z,100306.39
2019-03-10T07:46:27.602Z,100271.09
2019-03-10T07:49:10.031Z,100305.31
2019-03-10T07:52:25.454Z,100277.98
2019-03-10T07:55:26.249Z,100279.45
2019-03-10T07:58:42.191Z,100303.91
2019-03-10T08:05:02.018Z,100288.42
2019-03-10T08:11:29.496Z,100243.01
2019-03-10T08:18:03.968Z,100270.50
2019-03-10T08:21:10.022Z,100263.02
2019-03-10T08:27:11.743Z,100279.41
2019-03-10T08:33:47.951Z,100288.18
2019-03-10T08:47:14.561Z,100274.86
2019-03-10T08:53:13.873Z,100263.31
2019-03-10T08:55:54.845Z,100245.07
2019-03-10T08:58:50.763Z,100214.92
2019-03-10T09:04:48.914Z,100219.19
2019-03-10T09:10:36.367Z,100242.22
2019-03-10T09:19:36.918Z,100209.77
2019-03-10T09:22:16.211Z,100213.42
2019-03-10T09:25:13.270Z,100180.56
2019-03-10T09:31:10.711Z,100191.69
2019-03-10T09:37:10.947Z,100176.89
2019-03-10T09:40:14.783Z,100141.45
2019-03-10T09:46:26.557Z,100148.41
2019-03-10T09:49:29.820Z,100133.51
2019-03-10T09:52:26.006Z,100128.23
2019-03-10T09:55:22.219Z,100123.70
2019-03-10T09:58:38.242Z,100137.02
2019-03-10T10:04:49.967Z,100103.66
2019-03-10T10:07:42.126Z,100124.77
2019-03-10T10:10:45.559Z,100098.92
2019-03-10T10:16:17.447Z,100115.98
2019-03-10T10:19:20.148Z,100084.64
2019-03-10T10:22:11.832Z,100115.36
2019-03-10T10:25:14.641Z,100102.20
2019-03-10T10:31:04.115Z,100081.64
2019-03-10T10:34:13.353Z,100101.72
2019-03-10T10:37:21.148Z,100082.95
2019-03-10T10:40:19.238Z,100116.36
2019-03-10T10:43:10.413Z,100112.64
2019-03-10T10:46:28.360Z,100107.36
2019-03-10T10:49:30.983Z,100071.19
2019-03-10T10:52:37.985Z,100082.86
2019-03-10T10:55:41.403Z,100069.34
2019-03-10T10:58:38.312Z,100059.39
2019-03-10T11:01:42.121Z,100049.05
2019-03-10T11:04:45.751Z,100025.88
2019-03-10T11:07:53.467Z,100051.13
2019-03-10T11:14:29.425Z,100040.33
2019-03-10T11:20:07.628Z,100032.06
2019-03-10T11:23:11.169Z,100014.59
2019-03-10T11:26:17.477Z,100012.98
2019-03-10T11:32:13.088Z,100018.54
2019-03-10T11:41:02.578Z,100010.45
2019-03-10T11:43:54.754Z,99998.69
2019-03-10T11:49:44.640Z,99965.72
2019-03-10T11:55:36.287Z,99950.62
2019-03-10T11:58:43.207Z,99948.27
2019-03-10T12:01:46.149Z,99952.55
2019-03-10T12:04:51.839Z,99945.03
2019-03-10T12:07:55.228Z,99961.49
2019-03-10T12:10:39.744Z,99933.67
2019-03-10T12:13:23.801Z,99950.97
2019-03-10T12:16:07.754Z,99945.66
2019-03-10T12:18:51.505Z,99921.18
2019-03-10T12:21:35.591Z,99897.70
2019-03-10T12:24:20.087Z,99925.28
2019-03-10T12:27:03.880Z,99897.26
2019-03-10T12:29:49.489Z,99920.50
2019-03-10T12:32:34.897Z,99919.61
2019-03-10T12:35:18.788Z,99896.29
2019-03-10T12:38:04.397Z,99902.73
2019-03-10T12:40:48.458Z,99875.07
2019-03-10T12:43:32.811Z,99860.80
2019-03-10T12:46:17.612Z,99891.63
2019-03-10T12:49:02.156Z,99894.91
2019-03-10T12:51:47.093Z,99892.13
2019-03-10T12:54:21.677Z,99882.02
2019-03-10T12:57:06.156Z,99846.45
2019-03-10T12:59:38.352Z,99871.16
2019-03-10T13:02:22.588Z,99842.37
2019-03-10T13:05:06.531Z,99859.55
2019-03-10T13:07:50.309Z,99858.40
2019-03-10T13:10:22.628Z,99859.11
2019-03-10T13:13:07.121Z,99825.59
2019-03-10T13:15:51.150Z,99870.06
2019-03-10T13:18:35.817Z,99875.76
2019-03-10T13:21:21.521Z,99879.42
2019-03-10T13:24:05.375Z,99872.86
2019-03-10T13:26:49.563Z,99852.20
2019-03-10T13:29:33.244Z,99875.17
2019-03-10T13:32:17.349Z,99849.41
2019-03-10T13:35:01.878Z,99883.48
2019-03-10T13:37:46.085Z,99866.70
2019-03-10T13:40:32.854Z,99886.59
2019-03-10T13:43:16.854Z,99885.30
2019-03-10T13:46:03.266Z,99865.89
2019-03-10T13:51:49.766Z,99879.58
2019-03-10T13:54:34.438Z,99876.61
2019-03-10T13:57:20.542Z,99883.34
2019-03-10T14:00:05.683Z,99887.03
2019-03-10T14:02:51.126Z,99893.39
2019-03-10T14:05:35.204Z,99896.11
2019-03-10T14:08:19.686Z,99888.38
2019-03-10T14:11:04.056Z,99869.79
2019-03-10T14:13:49.605Z,99906.56
2019-03-10T14:16:34.443Z,99916.64
2019-03-10T14:19:19.953Z,99896.06
2019-03-10T14:24:51.061Z,99890.38
2019-03-10T14:27:35.706Z,99908.94
2019-03-10T14:30:20.494Z,99865.16
2019-03-10T14:33:04.475Z,99884.94
2019-03-10T14:35:48.778Z,99869.78
2019-03-10T14:38:32.841Z,99889.41
2019-03-10T14:41:05.056Z,99892.25
2019-03-10T14:43:49.289Z,99873.80
2019-03-10T14:46:35.243Z,99905.89
2019-03-10T14:49:23.594Z,99876.42
2019-03-10T14:52:04.961Z,99896.06
2019-03-10T14:54:48.722Z,99868.45
2019-03-10T14:57:34.453Z,99869.01
2019-03-10T15:00:19.860Z,99897.60
2019-03-10T15:03:04.487Z,99884.28
2019-03-10T15:05:36.952Z,99877.59
2019-03-10T15:08:21.719Z,99883.72
2019-03-10T15:11:05.927Z,99886.80
2019-03-10T15:13:49.885Z,99853.27
2019-03-10T15:16:33.700Z,99868.09
2019-03-10T15:19:05.900Z,99874.73
2019-03-10T15:21:50.626Z,99870.22
2019-03-10T15:24:35.843Z,99828.05
2019-03-10T15:27:23.255Z,99850.48
2019-03-10T15:29:53.772Z,99866.84
2019-03-10T15:32:38.298Z,99844.23
2019-03-10T15:35:23.696Z,99849.53
2019-03-10T15:38:08.082Z,99875.22
2019-03-10T15:40:40.594Z,99869.88
2019-03-10T15:43:26.661Z,99864.42
2019-03-10T15:46:10.617Z,99868.41
2019-03-10T15:48:54.428Z,99866.30
2019-03-10T15:51:39.084Z,99877.50
2019-03-10T15:54:24.386Z,99887.99
2019-03-10T15:57:09.961Z,99928.30
2019-03-10T15:59:54.251Z,99903.93
2019-03-10T16:02:26.261Z,99934.20
2019-03-10T16:05:10.412Z,99939.87
2019-03-10T16:07:56.549Z,99919.81
2019-03-10T16:10:40.553Z,99957.54
2019-03-10T16:13:24.473Z,99961.52
2019-03-10T16:16:09.323Z,99940.47
2019-03-10T16:18:53.291Z,99938.47
2019-03-10T16:21:37.854Z,99979.55
2019-03-10T16:24:21.574Z,99960.19
2019-03-10T16:27:05.981Z,99959.44
2019-03-10T16:29:50.110Z,99970.33
2019-03-10T16:32:34.308Z,99978.09
2019-03-10T16:35:19.243Z,99980.50
2019-03-10T16:38:03.720Z,100018.05
2019-03-10T16:40:47.275Z,99995.84
2019-03-10T16:43:29.895Z,100029.64
2019-03-10T16:46:14.147Z,100043.13
2019-03-10T16:48:58.304Z,100022.89
2019-03-10T16:51:42.384Z,100035.08
2019-03-10T16:54:29.047Z,100063.17
2019-03-10T16:57:13.333Z,100045.23
2019-03-10T16:59:57.719Z,100083.33
2019-03-10T17:02:43.271Z,100087.56
2019-03-10T17:05:26.900Z,100070.04
2019-03-10T17:08:11.519Z,100076.19
2019-03-10T17:10:57.501Z,100086.41
2019-03-10T17:13:41.665Z,100096.45
2019-03-10T17:19:27.923Z,100112.83
2019-03-10T17:22:12.121Z,100125.31
2019-03-10T17:24:58.411Z,100153.08
2019-03-10T17:27:43.206Z,100162.76
2019-03-10T17:30:32.318Z,100143.11
2019-03-10T17:33:16.859Z,100155.10
2019-03-10T17:36:01.836Z,100167.51
2019-03-10T17:38:46.576Z,100173.52
2019-03-10T17:41:30.699Z,100176.78
2019-03-10T17:44:14.775Z,100215.83
2019-03-10T17:46:59.003Z,100197.95
2019-03-10T17:49:43.647Z,100209.86
2019-03-10T17:52:34.657Z,100221.25
2019-03-10T17:55:05.938Z,100241.38
2019-03-10T17:57:49.790Z,100221.26
2019-03-10T18:00:35.325Z,100260.34
2019-03-10T18:03:20.038Z,100241.80
2019-03-10T18:06:04.022Z,100275.39
2019-03-10T18:08:48.828Z,100286.53
2019-03-10T18:11:32.634Z,100294.44
2019-03-10T18:14:17.190Z,100274.78
2019-03-10T18:17:01.034Z,100297.88
2019-03-10T18:19:45.177Z,100291.40
2019-03-10T18:22:17.386Z,100332.13
2019-03-10T18:24:49.567Z,100333.74
2019-03-10T18:27:40.209Z,100314.68
2019-03-10T18:30:16.077Z,100349.23
2019-03-10T18:33:00.371Z,100355.71
2019-03-10T18:35:44.832Z,100335.99
2019-03-10T18:38:29.534Z,100356.68
2019-03-10T18:41:15.915Z,100373.95
2019-03-10T18:44:01.582Z,100354.11
2019-03-10T18:46:45.607Z,100353.92
2019-03-10T18:49:29.998Z,100393.52
2019-03-10T18:52:14.055Z,100390.45
2019-03-10T18:54:46.807Z,100396.91
2019-03-10T18:57:20.297Z,100401.27
2019-03-10T19:00:05.658Z,100410.00
2019-03-10T19:02:49.662Z,100385.77
2019-03-10T19:05:33.221Z,100413.55
2019-03-10T19:08:16.839Z,100394.66
2019-03-10T19:11:01.259Z,100423.73
2019-03-10T19:13:47.241Z,100417.44
2019-03-10T19:16:32.030Z,100417.29
2019-03-10T19:19:16.571Z,100440.70
2019-03-10T19:22:02.888Z,100446.70
2019-03-10T19:24:52.995Z,100457.70
2019-03-10T19:27:37.259Z,100431.00
2019-03-10T19:30:12.660Z,100456.72
2019-03-10T19:32:58.050Z,100461.72
2019-03-10T19:35:41.893Z,100465.61
2019-03-10T19:38:25.890Z,100439.89
2019-03-10T19:41:09.861Z,100440.38
2019-03-10T19:43:54.717Z,100452.66
2019-03-10T19:46:40.970Z,100449.09
2019-03-10T19:49:13.217Z,100481.43
2019-03-10T19:51:57.347Z,100488.40
2019-03-10T19:54:41.474Z,100484.34
2019-03-10T19:57:26.490Z,100487.76
2019-03-10T20:00:11.905Z,100462.50
2019-03-10T20:02:56.254Z,100466.71
2019-03-10T20:05:40.840Z,100475.75
2019-03-10T20:08:24.862Z,100481.25
2019-03-10T20:11:09.008Z,100475.92
2019-03-10T20:13:53.116Z,100515.56
2019-03-10T20:16:37.387Z,100494.33
2019-03-10T20:19:09.627Z,100524.25
2019-03-10T20:21:53.946Z,100502.75
2019-03-10T20:24:38.079Z,100506.45
2019-03-10T20:27:24.660Z,100518.43
2019-03-10T20:30:10.389Z,100528.42
2019-03-10T20:32:55.451Z,100554.64
2019-03-10T20:38:27.293Z,100569.66
2019-03-10T20:41:12.687Z,100578.68
2019-03-10T20:43:56.658Z,100586.77
2019-03-10T20:46:40.840Z,100589.05
2019-03-10T20:49:24.801Z,100591.44
2019-03-10T20:52:08.656Z,100566.48
2019-03-10T20:54:54.559Z,100601.59
2019-03-10T21:00:27.690Z,100601.41
2019-03-10T21:03:12.167Z,100607.29
2019-03-10T21:05:57.117Z,100613.41
2019-03-10T21:08:43.639Z,100616.83
2019-03-10T21:11:27.487Z,100617.61
2019-03-10T21:14:10.971Z,100589.13
2019-03-10T21:16:55.113Z,100591.34
2019-03-10T21:19:39.869Z,100595.10
2019-03-10T21:22:26.230Z,100626.00
2019-03-10T21:25:11.345Z,100630.20
2019-03-10T21:27:44.080Z,100624.05
2019-03-10T21:30:27.922Z,100604.13
2019-03-10T21:36:04.402Z,100605.71
2019-03-10T21:38:36.768Z,100639.93
2019-03-10T21:41:19.606Z,100639.73
2019-03-10T21:43:53.318Z,100641.56
2019-03-10T21:46:38.589Z,100645.09
2019-03-10T21:49:22.684Z,100645.79
2019-03-10T21:52:07.025Z,100623.89
2019-03-10T21:54:50.536Z,100626.16
2019-03-10T21:57:35.199Z,100664.18
2019-03-10T22:00:19.986Z,100666.50
2019-03-10T22:02:52.263Z,100667.93
2019-03-10T22:05:36.279Z,100648.30
2019-03-10T22:08:20.365Z,100647.93
2019-03-10T22:11:04.782Z,100671.08
2019-03-10T22:13:49.721Z,100653.30
2019-03-10T22:16:35.098Z,100648.27
2019-03-10T22:19:23.008Z,100680.06
2019-03-10T22:22:04.017Z,100682.80
2019-03-10T22:24:47.766Z,100661.18
2019-03-10T22:27:20.216Z,100691.63
2019-03-10T22:30:05.477Z,100663.02
2019-03-10T22:35:36.264Z,100667.33
2019-03-10T22:38:19.957Z,100688.61
2019-03-10T22:41:04.394Z,100697.45
2019-03-10T22:43:48.801Z,100671.95
2019-03-10T22:49:20.326Z,100679.38
2019-03-10T22:52:04.845Z,100684.89
2019-03-10T22:54:49.392Z,100688.94
2019-03-10T23:00:20.380Z,100697.79
2019-03-10T23:03:06.131Z,100695.72
2019-03-10T23:05:49.936Z,100702.38
2019-03-10T23:08:33.551Z,100730.23
2019-03-10T23:11:18.211Z,100725.86
2019-03-10T23:14:04.306Z,100696.16
2019-03-10T23:16:48.331Z,100690.61
2019-03-10T23:19:32.479Z,100698.13
2019-03-10T23:22:16.112Z,100697.66
2019-03-10T23:25:01.742Z,100694.91
2019-03-10T23:27:47.878Z,100717.55
2019-03-10T23:30:31.755Z,100722.30
2019-03-10T23:33:16.151Z,100707.83
2019-03-10T23:36:00.809Z,100707.78
2019-03-10T23:38:45.239Z,100690.52
2019-03-10T23:41:29.129Z,100718.55
2019-03-10T23:44:12.884Z,100690.12
2019-03-10T23:46:56.715Z,100694.11
2019-03-10T23:52:27.374Z,100689.13
2019-03-10T23:55:11.351Z,100724.66
2019-03-10T23:57:54.423Z,100722.70
